sensor_id;sensor_type;location;lat;lon;timestamp;P1;durP1;ratioP1;P2;durP2;ratioP2
58731;SDS011;44508;44.626;21.182;2022-12-19T00:02:04;167.07;;;81.72;;
58731;SDS011;44508;44.626;21.182;2022-12-19T00:04:30;149.35;;;75.40;;
58731;SDS011;44508;44.626;21.182;2022-12-19T00:06:56;168.25;;;84.63;;
58731;SDS011;44508;44.626;21.182;2022-12-19T00:09:25;172.45;;;85.63;;
58731;SDS011;44508;44.626;21.182;2022-12-19T00:11:52;154.20;;;75.90;;
58731;SDS011;44508;44.626;21.182;2022-12-19T00:14:18;154.25;;;77.97;;
58731;SDS011;44508;44.626;21.182;2022-12-19T00:16:44;154.35;;;74.93;;
58731;SDS011;44508;44.626;21.182;2022-12-19T00:19:10;150.13;;;71.90;;
58731;SDS011;44508;44.626;21.182;2022-12-19T00:21:36;135.02;;;67.90;;
58731;SDS011;44508;44.626;21.182;2022-12-19T00:24:03;141.70;;;71.03;;
58731;SDS011;44508;44.626;21.182;2022-12-19T00:26:30;150.20;;;73.30;;
58731;SDS011;44508;44.626;21.182;2022-12-19T00:28:57;145.63;;;69.68;;
58731;SDS011;44508;44.626;21.182;2022-12-19T00:31:24;131.38;;;62.13;;
58731;SDS011;44508;44.626;21.182;2022-12-19T00:33:51;132.43;;;65.55;;
58731;SDS011;44508;44.626;21.182;2022-12-19T00:36:19;145.48;;;70.30;;
58731;SDS011;44508;44.626;21.182;2022-12-19T00:38:45;159.23;;;78.05;;
58731;SDS011;44508;44.626;21.182;2022-12-19T00:41:16;137.52;;;67.15;;
58731;SDS011;44508;44.626;21.182;2022-12-19T00:43:43;154.85;;;75.22;;
58731;SDS011;44508;44.626;21.182;2022-12-19T00:46:10;169.80;;;81.00;;
58731;SDS011;44508;44.626;21.182;2022-12-19T00:48:36;165.90;;;77.90;;
58731;SDS011;44508;44.626;21.182;2022-12-19T00:51:03;165.43;;;79.53;;
58731;SDS011;44508;44.626;21.182;2022-12-19T00:53:29;187.55;;;86.75;;
58731;SDS011;44508;44.626;21.182;2022-12-19T00:55:55;194.55;;;93.82;;
58731;SDS011;44508;44.626;21.182;2022-12-19T00:58:21;166.93;;;81.32;;
58731;SDS011;44508;44.626;21.182;2022-12-19T01:00:48;163.80;;;83.47;;
58731;SDS011;44508;44.626;21.182;2022-12-19T01:03:14;174.32;;;83.93;;
58731;SDS011;44508;44.626;21.182;2022-12-19T01:05:40;164.52;;;82.03;;
58731;SDS011;44508;44.626;21.182;2022-12-19T01:08:06;152.98;;;76.35;;
58731;SDS011;44508;44.626;21.182;2022-12-19T01:10:32;140.27;;;69.55;;
58731;SDS011;44508;44.626;21.182;2022-12-19T01:12:59;154.00;;;76.75;;
58731;SDS011;44508;44.626;21.182;2022-12-19T01:15:25;166.82;;;82.38;;
58731;SDS011;44508;44.626;21.182;2022-12-19T01:17:51;159.10;;;78.90;;
58731;SDS011;44508;44.626;21.182;2022-12-19T01:20:19;160.07;;;80.07;;
58731;SDS011;44508;44.626;21.182;2022-12-19T01:22:45;164.57;;;83.38;;
58731;SDS011;44508;44.626;21.182;2022-12-19T01:25:12;176.07;;;88.55;;
58731;SDS011;44508;44.626;21.182;2022-12-19T01:27:38;151.77;;;76.13;;
58731;SDS011;44508;44.626;21.182;2022-12-19T01:30:05;156.23;;;77.28;;
58731;SDS011;44508;44.626;21.182;2022-12-19T01:32:34;162.05;;;79.38;;
58731;SDS011;44508;44.626;21.182;2022-12-19T01:35:01;168.43;;;83.78;;
58731;SDS011;44508;44.626;21.182;2022-12-19T01:37:27;166.63;;;84.57;;
58731;SDS011;44508;44.626;21.182;2022-12-19T01:39:53;162.57;;;80.80;;
58731;SDS011;44508;44.626;21.182;2022-12-19T01:42:20;161.45;;;79.07;;
58731;SDS011;44508;44.626;21.182;2022-12-19T01:45:47;162.55;;;80.60;;
58731;SDS011;44508;44.626;21.182;2022-12-19T01:47:45;152.95;;;76.93;;
58731;SDS011;44508;44.626;21.182;2022-12-19T01:50:14;164.13;;;79.25;;
58731;SDS011;44508;44.626;21.182;2022-12-19T01:52:40;167.85;;;83.43;;
58731;SDS011;44508;44.626;21.182;2022-12-19T01:55:09;165.98;;;78.53;;
58731;SDS011;44508;44.626;21.182;2022-12-19T01:57:35;143.40;;;73.65;;
58731;SDS011;44508;44.626;21.182;2022-12-19T02:00:01;155.48;;;75.65;;
58731;SDS011;44508;44.626;21.182;2022-12-19T02:02:30;157.80;;;77.60;;
58731;SDS011;44508;44.626;21.182;2022-12-19T02:04:57;163.57;;;79.45;;
58731;SDS011;44508;44.626;21.182;2022-12-19T02:07:25;157.07;;;77.20;;
58731;SDS011;44508;44.626;21.182;2022-12-19T02:09:53;148.30;;;71.65;;
58731;SDS011;44508;44.626;21.182;2022-12-19T02:12:19;151.23;;;74.55;;
58731;SDS011;44508;44.626;21.182;2022-12-19T02:14:45;146.35;;;71.45;;
58731;SDS011;44508;44.626;21.182;2022-12-19T02:30:52;151.95;;;70.85;;
58731;SDS011;44508;44.626;21.182;2022-12-19T02:33:20;152.80;;;70.97;;
58731;SDS011;44508;44.626;21.182;2022-12-19T02:35:53;143.45;;;67.10;;
58731;SDS011;44508;44.626;21.182;2022-12-19T02:38:32;156.73;;;71.68;;
58731;SDS011;44508;44.626;21.182;2022-12-19T02:41:03;155.00;;;70.45;;
58731;SDS011;44508;44.626;21.182;2022-12-19T02:43:31;156.27;;;72.25;;
58731;SDS011;44508;44.626;21.182;2022-12-19T02:45:58;139.98;;;67.55;;
58731;SDS011;44508;44.626;21.182;2022-12-19T02:48:25;153.77;;;72.18;;
58731;SDS011;44508;44.626;21.182;2022-12-19T02:50:52;146.73;;;69.30;;
58731;SDS011;44508;44.626;21.182;2022-12-19T02:53:18;146.43;;;67.68;;
58731;SDS011;44508;44.626;21.182;2022-12-19T02:55:48;140.93;;;65.45;;
58731;SDS011;44508;44.626;21.182;2022-12-19T03:01:05;156.32;;;71.53;;
58731;SDS011;44508;44.626;21.182;2022-12-19T03:04:18;158.45;;;73.47;;
58731;SDS011;44508;44.626;21.182;2022-12-19T03:11:48;150.85;;;73.03;;
58731;SDS011;44508;44.626;21.182;2022-12-19T03:14:16;157.43;;;76.20;;
58731;SDS011;44508;44.626;21.182;2022-12-19T03:16:44;157.32;;;75.57;;
58731;SDS011;44508;44.626;21.182;2022-12-19T03:19:11;159.70;;;78.82;;
58731;SDS011;44508;44.626;21.182;2022-12-19T03:21:38;157.50;;;74.30;;
58731;SDS011;44508;44.626;21.182;2022-12-19T03:24:05;149.13;;;71.15;;
58731;SDS011;44508;44.626;21.182;2022-12-19T03:29:28;146.13;;;65.97;;
58731;SDS011;44508;44.626;21.182;2022-12-19T03:31:55;144.60;;;67.43;;
58731;SDS011;44508;44.626;21.182;2022-12-19T03:36:48;159.85;;;75.82;;
58731;SDS011;44508;44.626;21.182;2022-12-19T03:39:17;161.88;;;72.80;;
58731;SDS011;44508;44.626;21.182;2022-12-19T03:41:44;151.50;;;71.28;;
58731;SDS011;44508;44.626;21.182;2022-12-19T03:44:33;146.77;;;69.00;;
58731;SDS011;44508;44.626;21.182;2022-12-19T03:47:03;151.63;;;68.57;;
58731;SDS011;44508;44.626;21.182;2022-12-19T03:49:30;143.80;;;70.28;;
58731;SDS011;44508;44.626;21.182;2022-12-19T03:52:02;139.05;;;65.45;;
58731;SDS011;44508;44.626;21.182;2022-12-19T03:54:32;136.82;;;66.00;;
58731;SDS011;44508;44.626;21.182;2022-12-19T03:57:01;140.60;;;66.68;;
58731;SDS011;44508;44.626;21.182;2022-12-19T03:59:33;145.35;;;67.88;;
58731;SDS011;44508;44.626;21.182;2022-12-19T04:02:00;145.13;;;68.35;;
58731;SDS011;44508;44.626;21.182;2022-12-19T04:04:27;144.07;;;69.93;;
58731;SDS011;44508;44.626;21.182;2022-12-19T04:06:54;135.77;;;65.82;;
58731;SDS011;44508;44.626;21.182;2022-12-19T04:09:21;133.43;;;66.35;;
58731;SDS011;44508;44.626;21.182;2022-12-19T04:11:49;132.77;;;63.45;;
58731;SDS011;44508;44.626;21.182;2022-12-19T04:14:19;135.65;;;66.25;;
58731;SDS011;44508;44.626;21.182;2022-12-19T04:16:53;135.65;;;65.82;;
58731;SDS011;44508;44.626;21.182;2022-12-19T04:19:28;144.00;;;66.80;;
58731;SDS011;44508;44.626;21.182;2022-12-19T04:21:57;144.43;;;67.50;;
58731;SDS011;44508;44.626;21.182;2022-12-19T04:24:26;134.88;;;65.15;;
58731;SDS011;44508;44.626;21.182;2022-12-19T04:26:53;136.82;;;67.80;;
58731;SDS011;44508;44.626;21.182;2022-12-19T04:29:20;178.30;;;84.72;;
58731;SDS011;44508;44.626;21.182;2022-12-19T04:31:47;191.30;;;91.03;;
58731;SDS011;44508;44.626;21.182;2022-12-19T04:34:15;205.68;;;97.85;;
58731;SDS011;44508;44.626;21.182;2022-12-19T04:36:42;197.52;;;93.32;;
58731;SDS011;44508;44.626;21.182;2022-12-19T04:39:08;181.40;;;84.90;;
58731;SDS011;44508;44.626;21.182;2022-12-19T04:41:34;212.35;;;94.82;;
58731;SDS011;44508;44.626;21.182;2022-12-19T04:44:00;172.18;;;79.50;;
58731;SDS011;44508;44.626;21.182;2022-12-19T04:46:26;154.13;;;73.30;;
58731;SDS011;44508;44.626;21.182;2022-12-19T04:48:52;148.60;;;69.32;;
58731;SDS011;44508;44.626;21.182;2022-12-19T04:51:18;159.13;;;69.05;;
58731;SDS011;44508;44.626;21.182;2022-12-19T04:53:44;146.85;;;70.00;;
58731;SDS011;44508;44.626;21.182;2022-12-19T04:56:10;147.30;;;68.97;;
58731;SDS011;44508;44.626;21.182;2022-12-19T04:58:36;145.98;;;67.90;;
58731;SDS011;44508;44.626;21.182;2022-12-19T05:01:03;148.65;;;67.85;;
58731;SDS011;44508;44.626;21.182;2022-12-19T05:03:29;146.23;;;70.70;;
58731;SDS011;44508;44.626;21.182;2022-12-19T05:06:03;146.23;;;69.75;;
58731;SDS011;44508;44.626;21.182;2022-12-19T05:08:30;142.10;;;65.88;;
58731;SDS011;44508;44.626;21.182;2022-12-19T05:10:59;142.50;;;65.65;;
58731;SDS011;44508;44.626;21.182;2022-12-19T05:13:26;138.05;;;64.43;;
58731;SDS011;44508;44.626;21.182;2022-12-19T05:15:55;143.90;;;68.22;;
58731;SDS011;44508;44.626;21.182;2022-12-19T05:18:22;136.70;;;67.40;;
58731;SDS011;44508;44.626;21.182;2022-12-19T05:20:48;140.98;;;69.68;;
58731;SDS011;44508;44.626;21.182;2022-12-19T05:23:14;142.75;;;67.63;;
58731;SDS011;44508;44.626;21.182;2022-12-19T05:25:40;154.25;;;76.05;;
58731;SDS011;44508;44.626;21.182;2022-12-19T05:28:06;158.55;;;74.95;;
58731;SDS011;44508;44.626;21.182;2022-12-19T05:30:32;148.40;;;72.05;;
58731;SDS011;44508;44.626;21.182;2022-12-19T05:32:58;132.77;;;64.10;;
58731;SDS011;44508;44.626;21.182;2022-12-19T05:35:25;133.77;;;65.05;;
58731;SDS011;44508;44.626;21.182;2022-12-19T05:37:51;132.48;;;64.95;;
58731;SDS011;44508;44.626;21.182;2022-12-19T05:40:17;140.18;;;68.68;;
58731;SDS011;44508;44.626;21.182;2022-12-19T05:42:43;132.65;;;67.10;;
58731;SDS011;44508;44.626;21.182;2022-12-19T05:45:10;135.63;;;68.88;;
58731;SDS011;44508;44.626;21.182;2022-12-19T05:47:36;147.52;;;71.95;;
58731;SDS011;44508;44.626;21.182;2022-12-19T05:50:02;124.82;;;63.88;;
58731;SDS011;44508;44.626;21.182;2022-12-19T05:52:29;130.00;;;62.90;;
58731;SDS011;44508;44.626;21.182;2022-12-19T05:54:55;132.15;;;63.97;;
58731;SDS011;44508;44.626;21.182;2022-12-19T05:57:22;133.25;;;66.30;;
58731;SDS011;44508;44.626;21.182;2022-12-19T05:59:48;129.32;;;64.45;;
58731;SDS011;44508;44.626;21.182;2022-12-19T06:02:14;144.85;;;70.00;;
58731;SDS011;44508;44.626;21.182;2022-12-19T06:04:40;131.25;;;65.90;;
58731;SDS011;44508;44.626;21.182;2022-12-19T06:07:06;140.80;;;68.90;;
58731;SDS011;44508;44.626;21.182;2022-12-19T06:09:32;133.63;;;68.13;;
58731;SDS011;44508;44.626;21.182;2022-12-19T06:11:58;149.02;;;73.65;;
58731;SDS011;44508;44.626;21.182;2022-12-19T06:14:24;141.18;;;70.47;;
58731;SDS011;44508;44.626;21.182;2022-12-19T06:16:50;148.43;;;74.90;;
58731;SDS011;44508;44.626;21.182;2022-12-19T06:19:16;205.57;;;94.65;;
58731;SDS011;44508;44.626;21.182;2022-12-19T06:21:42;147.05;;;74.35;;
58731;SDS011;44508;44.626;21.182;2022-12-19T06:24:08;149.18;;;76.38;;
58731;SDS011;44508;44.626;21.182;2022-12-19T06:26:35;146.57;;;73.82;;
58731;SDS011;44508;44.626;21.182;2022-12-19T06:29:01;152.40;;;75.13;;
58731;SDS011;44508;44.626;21.182;2022-12-19T06:31:27;154.90;;;76.40;;
58731;SDS011;44508;44.626;21.182;2022-12-19T06:33:53;148.05;;;73.78;;
58731;SDS011;44508;44.626;21.182;2022-12-19T06:36:23;140.23;;;70.60;;
58731;SDS011;44508;44.626;21.182;2022-12-19T06:38:50;133.60;;;68.88;;
58731;SDS011;44508;44.626;21.182;2022-12-19T06:41:16;136.23;;;68.38;;
58731;SDS011;44508;44.626;21.182;2022-12-19T06:44:02;135.40;;;67.55;;
58731;SDS011;44508;44.626;21.182;2022-12-19T06:46:29;140.02;;;69.82;;
58731;SDS011;44508;44.626;21.182;2022-12-19T06:48:55;139.88;;;69.00;;
58731;SDS011;44508;44.626;21.182;2022-12-19T06:51:21;136.50;;;69.07;;
58731;SDS011;44508;44.626;21.182;2022-12-19T06:53:47;128.07;;;66.97;;
58731;SDS011;44508;44.626;21.182;2022-12-19T06:56:14;121.20;;;63.15;;
58731;SDS011;44508;44.626;21.182;2022-12-19T06:58:40;122.55;;;64.95;;
58731;SDS011;44508;44.626;21.182;2022-12-19T07:01:06;123.38;;;62.90;;
58731;SDS011;44508;44.626;21.182;2022-12-19T07:03:37;117.55;;;63.45;;
58731;SDS011;44508;44.626;21.182;2022-12-19T07:06:03;125.68;;;69.53;;
58731;SDS011;44508;44.626;21.182;2022-12-19T07:08:30;124.57;;;62.83;;
58731;SDS011;44508;44.626;21.182;2022-12-19T07:10:57;122.45;;;63.80;;
58731;SDS011;44508;44.626;21.182;2022-12-19T07:13:23;124.60;;;63.75;;
58731;SDS011;44508;44.626;21.182;2022-12-19T07:15:49;115.07;;;60.03;;
58731;SDS011;44508;44.626;21.182;2022-12-19T07:18:16;121.13;;;62.85;;
58731;SDS011;44508;44.626;21.182;2022-12-19T07:20:42;121.50;;;63.58;;
58731;SDS011;44508;44.626;21.182;2022-12-19T07:23:09;115.85;;;59.28;;
58731;SDS011;44508;44.626;21.182;2022-12-19T07:25:36;124.80;;;60.67;;
58731;SDS011;44508;44.626;21.182;2022-12-19T07:28:06;103.35;;;56.22;;
58731;SDS011;44508;44.626;21.182;2022-12-19T07:30:32;116.20;;;59.13;;
58731;SDS011;44508;44.626;21.182;2022-12-19T07:32:58;113.60;;;59.95;;
58731;SDS011;44508;44.626;21.182;2022-12-19T07:35:24;141.95;;;74.93;;
58731;SDS011;44508;44.626;21.182;2022-12-19T07:37:50;157.95;;;82.80;;
58731;SDS011;44508;44.626;21.182;2022-12-19T07:40:16;161.35;;;83.80;;
58731;SDS011;44508;44.626;21.182;2022-12-19T07:42:43;153.93;;;78.47;;
58731;SDS011;44508;44.626;21.182;2022-12-19T07:45:09;123.65;;;63.45;;
58731;SDS011;44508;44.626;21.182;2022-12-19T07:47:36;127.07;;;65.75;;
58731;SDS011;44508;44.626;21.182;2022-12-19T07:50:02;122.28;;;64.63;;
58731;SDS011;44508;44.626;21.182;2022-12-19T07:52:28;119.40;;;62.45;;
58731;SDS011;44508;44.626;21.182;2022-12-19T07:54:54;119.35;;;62.97;;
58731;SDS011;44508;44.626;21.182;2022-12-19T07:57:20;121.70;;;63.42;;
58731;SDS011;44508;44.626;21.182;2022-12-19T07:59:46;135.07;;;71.40;;
58731;SDS011;44508;44.626;21.182;2022-12-19T08:02:12;119.78;;;60.25;;
58731;SDS011;44508;44.626;21.182;2022-12-19T08:04:38;117.22;;;62.78;;
58731;SDS011;44508;44.626;21.182;2022-12-19T08:07:04;109.32;;;59.92;;
58731;SDS011;44508;44.626;21.182;2022-12-19T08:09:31;117.32;;;62.95;;
58731;SDS011;44508;44.626;21.182;2022-12-19T08:11:57;112.90;;;61.28;;
58731;SDS011;44508;44.626;21.182;2022-12-19T08:14:23;110.47;;;58.53;;
58731;SDS011;44508;44.626;21.182;2022-12-19T08:16:49;106.70;;;58.05;;
58731;SDS011;44508;44.626;21.182;2022-12-19T08:19:15;114.50;;;61.13;;
58731;SDS011;44508;44.626;21.182;2022-12-19T08:21:41;118.20;;;61.60;;
58731;SDS011;44508;44.626;21.182;2022-12-19T08:24:07;112.13;;;59.33;;
58731;SDS011;44508;44.626;21.182;2022-12-19T08:26:33;129.18;;;65.70;;
58731;SDS011;44508;44.626;21.182;2022-12-19T08:28:59;119.10;;;63.40;;
58731;SDS011;44508;44.626;21.182;2022-12-19T08:31:26;114.13;;;60.85;;
58731;SDS011;44508;44.626;21.182;2022-12-19T08:33:53;109.25;;;59.17;;
58731;SDS011;44508;44.626;21.182;2022-12-19T08:36:20;111.35;;;59.80;;
58731;SDS011;44508;44.626;21.182;2022-12-19T08:38:46;115.53;;;62.78;;
58731;SDS011;44508;44.626;21.182;2022-12-19T08:41:13;115.25;;;63.85;;
58731;SDS011;44508;44.626;21.182;2022-12-19T08:43:39;112.68;;;58.55;;
58731;SDS011;44508;44.626;21.182;2022-12-19T08:46:06;119.63;;;63.05;;
58731;SDS011;44508;44.626;21.182;2022-12-19T08:48:33;90.68;;;50.42;;
58731;SDS011;44508;44.626;21.182;2022-12-19T08:51:00;91.65;;;52.72;;
58731;SDS011;44508;44.626;21.182;2022-12-19T08:53:27;93.28;;;53.10;;
58731;SDS011;44508;44.626;21.182;2022-12-19T08:55:54;95.22;;;51.60;;
58731;SDS011;44508;44.626;21.182;2022-12-19T08:58:24;96.55;;;50.72;;
58731;SDS011;44508;44.626;21.182;2022-12-19T09:00:50;94.55;;;49.90;;
58731;SDS011;44508;44.626;21.182;2022-12-19T09:03:18;92.78;;;50.63;;
58731;SDS011;44508;44.626;21.182;2022-12-19T09:05:44;87.53;;;47.20;;
58731;SDS011;44508;44.626;21.182;2022-12-19T09:08:10;92.75;;;47.40;;
58731;SDS011;44508;44.626;21.182;2022-12-19T09:10:37;86.22;;;48.83;;
58731;SDS011;44508;44.626;21.182;2022-12-19T09:13:03;88.30;;;47.22;;
58731;SDS011;44508;44.626;21.182;2022-12-19T09:15:30;98.05;;;52.33;;
58731;SDS011;44508;44.626;21.182;2022-12-19T09:17:56;89.38;;;49.08;;
58731;SDS011;44508;44.626;21.182;2022-12-19T09:20:22;93.20;;;50.80;;
58731;SDS011;44508;44.626;21.182;2022-12-19T09:22:48;93.38;;;51.65;;
58731;SDS011;44508;44.626;21.182;2022-12-19T09:25:14;98.47;;;54.00;;
58731;SDS011;44508;44.626;21.182;2022-12-19T09:27:40;94.10;;;51.55;;
58731;SDS011;44508;44.626;21.182;2022-12-19T09:30:06;78.13;;;44.60;;
58731;SDS011;44508;44.626;21.182;2022-12-19T09:32:33;79.93;;;44.33;;
58731;SDS011;44508;44.626;21.182;2022-12-19T09:34:59;115.18;;;63.75;;
58731;SDS011;44508;44.626;21.182;2022-12-19T09:37:25;112.45;;;61.03;;
58731;SDS011;44508;44.626;21.182;2022-12-19T09:39:51;96.45;;;53.10;;
58731;SDS011;44508;44.626;21.182;2022-12-19T09:47:43;93.28;;;49.45;;
58731;SDS011;44508;44.626;21.182;2022-12-19T09:50:15;91.68;;;50.13;;
58731;SDS011;44508;44.626;21.182;2022-12-19T09:52:47;106.68;;;58.03;;
58731;SDS011;44508;44.626;21.182;2022-12-19T09:55:19;96.65;;;52.70;;
58731;SDS011;44508;44.626;21.182;2022-12-19T10:00:16;114.72;;;59.70;;
58731;SDS011;44508;44.626;21.182;2022-12-19T10:02:55;105.80;;;59.50;;
58731;SDS011;44508;44.626;21.182;2022-12-19T10:05:27;102.90;;;54.67;;
58731;SDS011;44508;44.626;21.182;2022-12-19T10:07:56;121.22;;;69.25;;
58731;SDS011;44508;44.626;21.182;2022-12-19T10:10:26;86.95;;;46.03;;
58731;SDS011;44508;44.626;21.182;2022-12-19T10:13:04;73.25;;;40.40;;
58731;SDS011;44508;44.626;21.182;2022-12-19T10:15:41;70.47;;;39.33;;
58731;SDS011;44508;44.626;21.182;2022-12-19T10:20:35;78.30;;;42.85;;
58731;SDS011;44508;44.626;21.182;2022-12-19T10:36:21;72.00;;;40.53;;
58731;SDS011;44508;44.626;21.182;2022-12-19T10:41:38;68.20;;;39.53;;
58731;SDS011;44508;44.626;21.182;2022-12-19T10:44:07;70.88;;;38.00;;
58731;SDS011;44508;44.626;21.182;2022-12-19T10:46:41;69.45;;;37.75;;
58731;SDS011;44508;44.626;21.182;2022-12-19T10:49:13;57.67;;;33.28;;
58731;SDS011;44508;44.626;21.182;2022-12-19T10:51:41;64.45;;;35.53;;
58731;SDS011;44508;44.626;21.182;2022-12-19T10:54:07;66.15;;;36.95;;
58731;SDS011;44508;44.626;21.182;2022-12-19T10:56:33;54.53;;;31.25;;
58731;SDS011;44508;44.626;21.182;2022-12-19T10:58:59;50.50;;;28.70;;
58731;SDS011;44508;44.626;21.182;2022-12-19T11:03:53;51.53;;;28.98;;
58731;SDS011;44508;44.626;21.182;2022-12-19T11:09:18;48.80;;;27.27;;
58731;SDS011;44508;44.626;21.182;2022-12-19T11:11:58;57.47;;;32.97;;
58731;SDS011;44508;44.626;21.182;2022-12-19T11:14:25;60.30;;;30.95;;
58731;SDS011;44508;44.626;21.182;2022-12-19T11:16:51;59.13;;;31.45;;
58731;SDS011;44508;44.626;21.182;2022-12-19T11:19:28;49.83;;;30.25;;
58731;SDS011;44508;44.626;21.182;2022-12-19T11:21:58;45.42;;;26.83;;
58731;SDS011;44508;44.626;21.182;2022-12-19T11:24:33;42.97;;;25.58;;
58731;SDS011;44508;44.626;21.182;2022-12-19T11:27:00;49.50;;;27.90;;
58731;SDS011;44508;44.626;21.182;2022-12-19T11:31:57;60.75;;;32.80;;
58731;SDS011;44508;44.626;21.182;2022-12-19T11:34:24;51.22;;;30.13;;
58731;SDS011;44508;44.626;21.182;2022-12-19T11:37:37;53.50;;;29.38;;
58731;SDS011;44508;44.626;21.182;2022-12-19T11:39:47;42.53;;;23.88;;
58731;SDS011;44508;44.626;21.182;2022-12-19T11:42:24;41.60;;;23.80;;
58731;SDS011;44508;44.626;21.182;2022-12-19T11:47:41;43.67;;;25.05;;
58731;SDS011;44508;44.626;21.182;2022-12-19T11:52:48;36.53;;;17.92;;
58731;SDS011;44508;44.626;21.182;2022-12-19T11:55:22;37.65;;;20.38;;
58731;SDS011;44508;44.626;21.182;2022-12-19T11:57:52;31.70;;;16.92;;
58731;SDS011;44508;44.626;21.182;2022-12-19T12:00:21;40.80;;;19.67;;
58731;SDS011;44508;44.626;21.182;2022-12-19T12:03:25;29.85;;;17.05;;
58731;SDS011;44508;44.626;21.182;2022-12-19T12:05:47;33.55;;;19.63;;
58731;SDS011;44508;44.626;21.182;2022-12-19T12:11:00;31.98;;;20.05;;
58731;SDS011;44508;44.626;21.182;2022-12-19T12:16:00;33.45;;;19.52;;
58731;SDS011;44508;44.626;21.182;2022-12-19T12:44:22;27.85;;;16.08;;
58731;SDS011;44508;44.626;21.182;2022-12-19T12:46:50;27.73;;;16.95;;
58731;SDS011;44508;44.626;21.182;2022-12-19T12:49:39;43.33;;;24.63;;
58731;SDS011;44508;44.626;21.182;2022-12-19T12:52:08;39.42;;;21.60;;
58731;SDS011;44508;44.626;21.182;2022-12-19T12:54:37;40.50;;;22.63;;
58731;SDS011;44508;44.626;21.182;2022-12-19T12:57:04;36.35;;;22.10;;
58731;SDS011;44508;44.626;21.182;2022-12-19T12:59:30;31.75;;;21.63;;
58731;SDS011;44508;44.626;21.182;2022-12-19T13:02:00;33.28;;;20.25;;
58731;SDS011;44508;44.626;21.182;2022-12-19T13:07:02;40.08;;;20.42;;
58731;SDS011;44508;44.626;21.182;2022-12-19T13:09:30;39.45;;;23.33;;
58731;SDS011;44508;44.626;21.182;2022-12-19T13:14:47;34.58;;;21.55;;
58731;SDS011;44508;44.626;21.182;2022-12-19T13:17:18;34.53;;;21.05;;
58731;SDS011;44508;44.626;21.182;2022-12-19T13:22:42;31.45;;;18.95;;
58731;SDS011;44508;44.626;21.182;2022-12-19T13:27:56;33.17;;;18.98;;
58731;SDS011;44508;44.626;21.182;2022-12-19T13:30:23;34.00;;;21.00;;
58731;SDS011;44508;44.626;21.182;2022-12-19T13:37:42;41.65;;;21.23;;
58731;SDS011;44508;44.626;21.182;2022-12-19T13:42:49;40.70;;;21.50;;
58731;SDS011;44508;44.626;21.182;2022-12-19T13:45:53;38.42;;;20.58;;
58731;SDS011;44508;44.626;21.182;2022-12-19T13:48:23;32.88;;;17.98;;
58731;SDS011;44508;44.626;21.182;2022-12-19T13:50:51;34.28;;;18.75;;
58731;SDS011;44508;44.626;21.182;2022-12-19T13:53:20;31.75;;;18.10;;
58731;SDS011;44508;44.626;21.182;2022-12-19T13:55:47;40.67;;;21.30;;
58731;SDS011;44508;44.626;21.182;2022-12-19T13:58:26;33.38;;;18.45;;
58731;SDS011;44508;44.626;21.182;2022-12-19T14:00:54;38.10;;;18.80;;
58731;SDS011;44508;44.626;21.182;2022-12-19T14:03:24;39.13;;;20.58;;
58731;SDS011;44508;44.626;21.182;2022-12-19T14:05:58;35.10;;;18.80;;
58731;SDS011;44508;44.626;21.182;2022-12-19T14:08:24;37.15;;;20.70;;
58731;SDS011;44508;44.626;21.182;2022-12-19T14:10:52;40.45;;;22.75;;
58731;SDS011;44508;44.626;21.182;2022-12-19T14:13:20;41.72;;;21.00;;
58731;SDS011;44508;44.626;21.182;2022-12-19T14:16:05;37.50;;;21.33;;
58731;SDS011;44508;44.626;21.182;2022-12-19T14:18:32;36.45;;;19.45;;
58731;SDS011;44508;44.626;21.182;2022-12-19T14:23:37;39.63;;;20.23;;
58731;SDS011;44508;44.626;21.182;2022-12-19T14:26:03;41.83;;;21.90;;
58731;SDS011;44508;44.626;21.182;2022-12-19T14:28:36;47.97;;;24.67;;
58731;SDS011;44508;44.626;21.182;2022-12-19T14:31:04;40.95;;;21.92;;
58731;SDS011;44508;44.626;21.182;2022-12-19T14:33:34;42.97;;;22.23;;
58731;SDS011;44508;44.626;21.182;2022-12-19T14:36:01;41.67;;;23.33;;
58731;SDS011;44508;44.626;21.182;2022-12-19T14:38:28;43.65;;;22.17;;
58731;SDS011;44508;44.626;21.182;2022-12-19T14:40:57;44.10;;;24.00;;
58731;SDS011;44508;44.626;21.182;2022-12-19T14:43:25;39.17;;;22.40;;
58731;SDS011;44508;44.626;21.182;2022-12-19T14:51:18;44.67;;;25.02;;
58731;SDS011;44508;44.626;21.182;2022-12-19T14:56:33;34.28;;;19.48;;
58731;SDS011;44508;44.626;21.182;2022-12-19T15:01:42;37.95;;;20.90;;
58731;SDS011;44508;44.626;21.182;2022-12-19T15:04:16;37.25;;;19.58;;
58731;SDS011;44508;44.626;21.182;2022-12-19T15:06:43;40.95;;;18.92;;
58731;SDS011;44508;44.626;21.182;2022-12-19T15:09:10;42.53;;;21.63;;
58731;SDS011;44508;44.626;21.182;2022-12-19T15:11:43;40.85;;;19.00;;
58731;SDS011;44508;44.626;21.182;2022-12-19T15:14:42;34.95;;;17.70;;
58731;SDS011;44508;44.626;21.182;2022-12-19T15:17:19;33.03;;;17.58;;
58731;SDS011;44508;44.626;21.182;2022-12-19T15:19:46;35.60;;;18.45;;
58731;SDS011;44508;44.626;21.182;2022-12-19T15:22:12;32.60;;;17.98;;
58731;SDS011;44508;44.626;21.182;2022-12-19T15:24:39;32.17;;;16.77;;
58731;SDS011;44508;44.626;21.182;2022-12-19T15:27:08;33.42;;;17.10;;
58731;SDS011;44508;44.626;21.182;2022-12-19T15:29:36;30.55;;;17.13;;
58731;SDS011;44508;44.626;21.182;2022-12-19T15:32:02;31.10;;;16.85;;
58731;SDS011;44508;44.626;21.182;2022-12-19T15:34:29;29.25;;;15.88;;
58731;SDS011;44508;44.626;21.182;2022-12-19T15:36:58;31.80;;;16.80;;
58731;SDS011;44508;44.626;21.182;2022-12-19T15:39:24;31.35;;;18.08;;
58731;SDS011;44508;44.626;21.182;2022-12-19T15:41:53;32.70;;;17.48;;
58731;SDS011;44508;44.626;21.182;2022-12-19T15:44:33;32.25;;;16.55;;
58731;SDS011;44508;44.626;21.182;2022-12-19T15:47:01;31.48;;;17.70;;
58731;SDS011;44508;44.626;21.182;2022-12-19T15:49:28;28.67;;;15.85;;
58731;SDS011;44508;44.626;21.182;2022-12-19T15:51:55;31.85;;;17.45;;
58731;SDS011;44508;44.626;21.182;2022-12-19T15:54:21;30.08;;;16.70;;
58731;SDS011;44508;44.626;21.182;2022-12-19T15:56:52;29.70;;;15.85;;
58731;SDS011;44508;44.626;21.182;2022-12-19T16:01:44;30.58;;;17.35;;
58731;SDS011;44508;44.626;21.182;2022-12-19T16:04:10;32.90;;;18.00;;
58731;SDS011;44508;44.626;21.182;2022-12-19T16:06:37;35.40;;;17.58;;
58731;SDS011;44508;44.626;21.182;2022-12-19T16:09:22;37.33;;;18.70;;
58731;SDS011;44508;44.626;21.182;2022-12-19T16:11:49;35.40;;;19.10;;
58731;SDS011;44508;44.626;21.182;2022-12-19T16:14:16;33.70;;;18.48;;
58731;SDS011;44508;44.626;21.182;2022-12-19T16:16:44;34.78;;;19.52;;
58731;SDS011;44508;44.626;21.182;2022-12-19T16:19:22;35.97;;;19.05;;
58731;SDS011;44508;44.626;21.182;2022-12-19T16:21:48;34.50;;;20.10;;